Pago Pago, AS

9:27 PM SST on August 25, 2016 (GMT -1100)
Malaeimi | | Change Station

Elev 217 ft 14.32 °S, 170.74 °W | Updated 26 minutes ago

Partly Cloudy
Partly Cloudy
78.1 °F
Feels Like 80 °F
N
5.0
Wind Variable Wind from NNE
Gusts 6.0 mph

Today
High -- | Low -- °F
--% Chance of Precip.
Yesterday
High -- | Low -- °F
Precip. -- in
Pressure 30.02 in
Visibility 10.0 miles
Clouds Few 5000 ft
Heat Index 80 °F
Dew Point 68 °F
Humidity 72%
Rainfall 0.00 in
Snow Depth Not available.
6:31 AM 6:17 PM
Last Quarter, 37% visible
METAR PHKO 260753Z 07009KT 10SM FEW050 27/22 A3001 RMK AO2 SLP164 T02720217
Pressure 30.02 in
Visibility 10.0 miles
Clouds Few 5000 ft
Heat Index 80 °F
Dew Point 68 °F
Humidity 72%
Rainfall 0.00 in
Snow Depth Not available.
6:31 AM 6:17 PM
Last Quarter, 37% visible
METAR PHKO 260753Z 07009KT 10SM FEW050 27/22 A3001 RMK AO2 SLP164 T02720217

10-Day Weather Forecast

No radar image for this location.
×

Almanac

Astronomy

Aug. 25, 2016 Rise Set
Actual Time
Civil Twilight
Nautical Twilight
Astronomical Twilight
Moon
Length of Visible Light
Length of Day
Tomorrow will be .
, % of the Moon is Illuminated

Today's Extremes

State Highs State Lows

Community

WunderPhotos

Upload Photos

1,935,062 photos uploaded!

WunderBlog® & News

Nearby

Air Quality

  Air Quality AQ Index Pollutant
Not available.

Snow Depth

Station Depth Elevation

Earthquake Activity

City Distance Mag. Time & Date
Minimum magnitude displayed is 2.5.

Coastal Water Temperatures

Place Temperature

Stations

Nearby Weather Stations

Station Location Temp. Windchill Dew Point Humidity Wind Precip. Elev Updated Type
                   

Watches & Warnings

There are currently no watches in effect.